Main page
METAR-TAF:

METAR-TAF

Airports :

New Bedford Regional Airport

New Bedford, Massachusetts, United States

latitude: 41-40-31N, longitude: 070-57-25W, elevation: 79 ft

Current weather observation

The report was made 1 hour and 4 minutes ago, at 00:53 UTC
Wind 5 mph from the South/Southwest
Temperature 37°F
Humidity 70%
Pressure 30.42 in. Hg
Visibility: 10 miles
Broken clouds at a height of 3400 ft

METAR: KEWB 090053Z 20004KT 10SM BKN034 03/M02 A3042 RMK AO2 SLP301 T00331017 $

Time: 20:57 (01:57 UTC)


TAF: missing

Weather observations and forecasts of more than 4000 airports (METAR and TAF reports).

The available stations are represented by yellow and red dots on the map.

Hover mouse over dot to see the name of the station.

Then click to see weather observations and forecasts.

To change the map : click on the green buttons with a black cross to zoom in, on the green button with a dash to zoom out, or on the green arrows for adjacent maps.


METAR-TAF: